createdAt,value
2023-02-27T00:03:01.087Z,11.20
2023-02-27T00:06:13.746Z,10.63
2023-02-27T00:09:26.119Z,10.27
2023-02-27T00:12:39.099Z,10.27
2023-02-27T00:15:51.855Z,8.90
2023-02-27T00:19:04.964Z,7.20
2023-02-27T00:22:17.332Z,10.45
2023-02-27T00:25:29.936Z,12.77
2023-02-27T00:28:42.249Z,12.02
2023-02-27T00:31:55.176Z,8.73
2023-02-27T00:35:09.188Z,8.90
2023-02-27T00:38:21.999Z,9.48
2023-02-27T00:41:34.339Z,8.88
2023-02-27T00:44:46.982Z,11.18
2023-02-27T00:47:59.385Z,6.53
2023-02-27T00:51:12.016Z,13.48
2023-02-27T00:54:24.770Z,9.02
2023-02-27T00:57:38.703Z,9.60
2023-02-27T01:00:51.293Z,9.75
2023-02-27T01:04:04.651Z,10.50
2023-02-27T01:07:17.038Z,6.03
2023-02-27T01:10:29.666Z,7.70
2023-02-27T01:13:42.030Z,9.27
2023-02-27T01:16:54.696Z,7.93
2023-02-27T01:20:07.800Z,9.40
2023-02-27T01:23:20.654Z,8.75
2023-02-27T01:26:34.964Z,8.95
2023-02-27T01:29:47.657Z,9.63
2023-02-27T01:33:00.095Z,8.80
2023-02-27T01:36:12.777Z,11.30
2023-02-27T01:39:26.337Z,8.77
2023-02-27T01:42:39.038Z,6.50
2023-02-27T01:45:51.556Z,7.82
2023-02-27T01:49:07.837Z,7.12
2023-02-27T01:52:20.125Z,7.43
2023-02-27T01:55:37.947Z,7.37
2023-02-27T01:58:50.496Z,9.00
2023-02-27T02:02:04.313Z,8.10
2023-02-27T02:05:19.231Z,7.40
2023-02-27T02:08:34.489Z,7.75
2023-02-27T02:11:47.329Z,6.68
2023-02-27T02:15:03.829Z,9.05
2023-02-27T02:18:27.044Z,7.93
2023-02-27T02:21:47.796Z,10.05
2023-02-27T02:25:08.740Z,7.62
2023-02-27T02:29:00.608Z,7.85
2023-02-27T02:32:37.349Z,7.30
2023-02-27T02:36:24.570Z,5.90
2023-02-27T02:39:51.839Z,5.87
2023-02-27T02:43:17.976Z,6.22
2023-02-27T02:46:56.280Z,5.55
2023-02-27T02:50:11.484Z,6.20
2023-02-27T02:53:25.031Z,5.10
2023-02-27T02:56:56.122Z,7.05
2023-02-27T03:00:11.241Z,6.35
2023-02-27T03:03:32.503Z,4.30
2023-02-27T03:06:47.668Z,7.12
2023-02-27T03:10:16.042Z,7.82
2023-02-27T03:13:46.120Z,5.95
2023-02-27T03:17:00.463Z,5.22
2023-02-27T03:20:16.793Z,5.50
2023-02-27T03:23:32.571Z,5.45
2023-02-27T03:26:44.941Z,6.28
2023-02-27T03:30:23.500Z,5.32
2023-02-27T03:33:41.163Z,7.53
2023-02-27T03:37:31.543Z,9.43
2023-02-27T03:40:55.717Z,6.75
2023-02-27T03:44:44.943Z,6.28
2023-02-27T03:47:57.347Z,5.80
2023-02-27T03:51:14.335Z,4.07
2023-02-27T03:54:29.506Z,7.62
2023-02-27T03:57:42.170Z,7.82
2023-02-27T04:00:54.634Z,6.32
2023-02-27T04:04:10.490Z,7.62
2023-02-27T04:08:03.166Z,6.03
2023-02-27T04:11:36.401Z,5.25
2023-02-27T04:15:07.204Z,5.95
2023-02-27T04:18:33.565Z,7.40
2023-02-27T04:22:00.971Z,7.30
2023-02-27T04:28:39.056Z,5.37
2023-02-27T04:32:20.036Z,5.00
2023-02-27T04:35:41.660Z,3.95
2023-02-27T04:39:19.296Z,3.87
2023-02-27T04:42:33.259Z,5.28
2023-02-27T04:45:45.916Z,5.87
2023-02-27T04:49:08.898Z,5.18
2023-02-27T04:52:34.422Z,5.68
2023-02-27T04:55:52.070Z,4.57
2023-02-27T04:59:26.162Z,7.00
2023-02-27T05:02:45.712Z,5.37
2023-02-27T05:06:00.218Z,7.82
2023-02-27T05:09:41.042Z,6.75
2023-02-27T05:12:57.688Z,7.82
2023-02-27T05:16:13.277Z,8.10
2023-02-27T05:19:25.854Z,6.55
2023-02-27T05:22:50.948Z,5.47
2023-02-27T05:26:32.679Z,6.22
2023-02-27T05:29:58.712Z,6.47
2023-02-27T05:33:26.614Z,8.88
2023-02-27T05:36:45.440Z,6.15
2023-02-27T05:39:58.309Z,7.40
2023-02-27T05:43:13.199Z,7.72
2023-02-27T05:46:28.258Z,6.90
2023-02-27T05:49:42.904Z,4.35
2023-02-27T05:52:56.440Z,5.80
2023-02-27T05:56:08.915Z,7.25
2023-02-27T05:59:30.646Z,6.65
2023-02-27T06:02:43.155Z,8.00
2023-02-27T06:05:57.532Z,6.22
2023-02-27T06:09:09.826Z,7.18
2023-02-27T06:12:22.424Z,6.97
2023-02-27T06:15:34.755Z,8.38
2023-02-27T06:18:48.765Z,6.85
2023-02-27T06:22:01.124Z,10.65
2023-02-27T06:25:13.710Z,9.45
2023-02-27T06:28:26.086Z,9.80
2023-02-27T06:31:38.755Z,6.97
2023-02-27T06:34:51.993Z,7.85
2023-02-27T06:38:05.129Z,8.05
2023-02-27T06:41:17.559Z,7.57
2023-02-27T06:44:30.188Z,5.95
2023-02-27T06:47:42.745Z,8.52
2023-02-27T06:50:56.419Z,10.60
2023-02-27T06:54:10.843Z,8.90
2023-02-27T06:57:25.852Z,8.43
2023-02-27T07:00:38.218Z,12.45
2023-02-27T07:03:50.960Z,9.45
2023-02-27T07:07:33.185Z,7.00
2023-02-27T07:10:35.966Z,8.52
2023-02-27T07:13:48.319Z,6.82
2023-02-27T07:17:04.406Z,6.05
2023-02-27T07:20:16.889Z,8.73
2023-02-27T07:23:29.550Z,7.20
2023-02-27T07:26:41.963Z,4.75
2023-02-27T07:29:54.609Z,5.50
2023-02-27T07:33:08.434Z,4.85
2023-02-27T07:36:21.150Z,12.25
2023-02-27T07:39:33.548Z,7.53
2023-02-27T07:42:48.411Z,5.57
2023-02-27T07:46:04.088Z,6.12
2023-02-27T07:49:16.787Z,5.95
2023-02-27T07:55:46.645Z,6.15
2023-02-27T07:58:58.974Z,7.53
2023-02-27T08:02:12.162Z,8.50
2023-02-27T08:05:24.821Z,6.62
2023-02-27T08:08:39.285Z,7.72
2023-02-27T08:11:51.953Z,6.50
2023-02-27T08:15:04.780Z,6.20
2023-02-27T08:18:17.521Z,5.47
2023-02-27T08:21:30.395Z,7.55
2023-02-27T08:24:43.186Z,6.93
2023-02-27T08:27:55.542Z,6.37
2023-02-27T08:31:08.151Z,10.32
2023-02-27T08:34:20.599Z,7.60
2023-02-27T08:37:33.262Z,7.37
2023-02-27T08:40:45.941Z,6.72
2023-02-27T08:43:58.635Z,6.68
2023-02-27T08:47:11.021Z,5.40
2023-02-27T08:50:23.679Z,4.50
2023-02-27T08:53:36.000Z,8.68
2023-02-27T08:56:48.934Z,5.45
2023-02-27T09:00:01.353Z,8.23
2023-02-27T09:03:14.009Z,8.23
2023-02-27T09:06:26.665Z,8.05
2023-02-27T09:09:39.273Z,5.93
2023-02-27T09:12:51.625Z,5.62
2023-02-27T09:16:05.824Z,6.80
2023-02-27T09:19:18.188Z,5.22
2023-02-27T09:22:31.322Z,9.73
2023-02-27T09:25:43.765Z,6.93
2023-02-27T09:28:56.448Z,8.75
2023-02-27T09:32:09.111Z,7.97
2023-02-27T09:35:21.936Z,8.95
2023-02-27T09:38:34.834Z,7.70
2023-02-27T09:41:57.868Z,5.40
2023-02-27T09:45:10.532Z,7.00
2023-02-27T09:48:32.277Z,5.62
2023-02-27T09:51:44.672Z,8.73
2023-02-27T09:54:57.366Z,9.57
2023-02-27T09:58:31.386Z,5.57
2023-02-27T10:02:09.188Z,6.22
2023-02-27T10:05:40.800Z,11.38
2023-02-27T10:09:01.142Z,9.20
2023-02-27T10:12:25.629Z,6.43
2023-02-27T10:15:40.902Z,9.82
2023-02-27T10:18:58.127Z,5.93
2023-02-27T10:22:13.385Z,5.97
2023-02-27T10:25:31.681Z,4.90
2023-02-27T10:28:44.471Z,4.65
2023-02-27T10:32:26.836Z,6.47
2023-02-27T10:35:40.049Z,4.55
2023-02-27T10:38:52.791Z,4.80
2023-02-27T10:42:06.726Z,4.22
2023-02-27T10:45:19.353Z,4.37
2023-02-27T10:48:34.644Z,6.68
2023-02-27T10:51:48.176Z,6.32
2023-02-27T10:55:02.690Z,6.97
2023-02-27T10:58:19.671Z,7.03
2023-02-27T11:01:49.266Z,13.23
2023-02-27T11:05:01.941Z,7.70
2023-02-27T11:08:26.001Z,7.05
2023-02-27T11:11:38.619Z,6.03
2023-02-27T11:14:58.084Z,17.02
2023-02-27T11:18:30.504Z,9.98
2023-02-27T11:21:42.859Z,5.53
2023-02-27T11:25:20.445Z,6.03
2023-02-27T11:28:32.914Z,10.67
2023-02-27T11:32:05.509Z,7.97
2023-02-27T11:35:31.869Z,8.30
2023-02-27T11:38:53.458Z,6.32
2023-02-27T11:42:17.262Z,8.57
2023-02-27T11:46:11.048Z,9.07
2023-02-27T11:49:29.490Z,8.55
2023-02-27T11:52:48.227Z,8.50
2023-02-27T11:56:03.736Z,6.68
2023-02-27T11:59:40.761Z,7.68
2023-02-27T12:03:14.507Z,9.13
2023-02-27T12:06:30.521Z,11.93
2023-02-27T12:09:51.638Z,9.07
2023-02-27T12:13:06.896Z,7.03
2023-02-27T12:16:33.324Z,18.42
2023-02-27T12:19:58.796Z,9.05
2023-02-27T12:23:36.685Z,10.43
2023-02-27T12:30:07.712Z,7.53
2023-02-27T12:33:26.212Z,7.03
2023-02-27T12:36:38.805Z,8.27
2023-02-27T12:39:52.537Z,5.32
2023-02-27T12:43:29.591Z,7.70
2023-02-27T12:47:08.055Z,5.43
2023-02-27T12:53:55.044Z,8.35
2023-02-27T12:57:28.396Z,5.78
2023-02-27T13:01:03.363Z,7.12
2023-02-27T13:04:32.994Z,8.07
2023-02-27T13:07:58.091Z,7.10
2023-02-27T13:11:29.187Z,15.15
2023-02-27T13:14:56.292Z,15.52
2023-02-27T13:18:27.558Z,8.60
2023-02-27T13:21:47.304Z,10.63
2023-02-27T13:25:00.981Z,9.20
2023-02-27T13:28:16.686Z,7.57
2023-02-27T13:31:48.036Z,6.72
2023-02-27T13:35:18.168Z,10.85
2023-02-27T13:38:43.717Z,8.07
2023-02-27T13:41:56.676Z,9.02
2023-02-27T13:45:47.967Z,10.50
2023-02-27T13:49:10.604Z,11.43
2023-02-27T13:52:35.223Z,11.65
2023-02-27T13:55:47.904Z,9.13
2023-02-27T13:59:13.339Z,8.23
2023-02-27T14:02:34.848Z,42.33
2023-02-27T14:05:48.619Z,31.60
2023-02-27T14:09:12.854Z,8.85
2023-02-27T14:12:45.847Z,9.35
2023-02-27T14:16:00.433Z,8.43
2023-02-27T14:19:16.272Z,9.55
2023-02-27T14:22:37.344Z,14.60
2023-02-27T14:25:49.973Z,15.50
2023-02-27T14:29:02.379Z,9.27
2023-02-27T14:32:20.904Z,9.95
2023-02-27T14:35:33.405Z,18.58
2023-02-27T14:38:46.143Z,8.00
2023-02-27T14:42:16.803Z,9.15
2023-02-27T14:45:33.064Z,9.57
2023-02-27T14:48:45.396Z,8.90
2023-02-27T14:51:58.488Z,8.65
2023-02-27T14:55:29.385Z,8.48
2023-02-27T14:58:55.543Z,15.10
2023-02-27T15:02:23.413Z,22.80
2023-02-27T15:05:36.909Z,40.05
2023-02-27T15:08:53.432Z,14.93
2023-02-27T15:12:06.208Z,13.77
2023-02-27T15:15:19.672Z,17.30
2023-02-27T15:18:32.290Z,12.45
2023-02-27T15:21:47.464Z,14.30
2023-02-27T15:25:03.060Z,21.90
2023-02-27T15:28:26.664Z,13.07
2023-02-27T15:31:39.315Z,13.70
2023-02-27T15:34:51.736Z,11.68
2023-02-27T15:38:04.503Z,13.73
2023-02-27T15:41:16.862Z,10.93
2023-02-27T15:44:49.652Z,10.43
2023-02-27T15:48:02.440Z,11.90
2023-02-27T15:51:15.044Z,8.20
2023-02-27T15:54:34.186Z,15.75
2023-02-27T15:58:00.780Z,13.95
2023-02-27T16:01:19.932Z,12.50
2023-02-27T16:04:34.727Z,13.43
2023-02-27T16:07:47.196Z,15.50
2023-02-27T16:11:00.008Z,17.37
2023-02-27T16:14:47.737Z,15.38
2023-02-27T16:18:02.982Z,13.23
2023-02-27T16:21:17.053Z,24.87
2023-02-27T16:24:33.577Z,16.35
2023-02-27T16:27:47.755Z,18.52
2023-02-27T16:31:00.586Z,25.10
2023-02-27T16:34:13.960Z,23.90
2023-02-27T16:37:38.249Z,31.45
2023-02-27T16:40:52.218Z,38.33
2023-02-27T16:44:05.056Z,56.53
2023-02-27T16:47:17.370Z,48.65
2023-02-27T16:50:43.035Z,50.38
2023-02-27T16:53:55.842Z,52.00
2023-02-27T16:57:09.725Z,59.05
2023-02-27T17:00:24.814Z,46.20
2023-02-27T17:03:37.493Z,46.63
2023-02-27T17:06:49.844Z,55.63
2023-02-27T17:10:02.551Z,54.78
2023-02-27T17:13:14.870Z,61.70
2023-02-27T17:16:28.021Z,63.10
2023-02-27T17:19:40.779Z,59.75
2023-02-27T17:22:53.406Z,68.95
2023-02-27T17:26:05.771Z,63.25
2023-02-27T17:29:18.395Z,60.05
2023-02-27T17:32:30.738Z,74.07
2023-02-27T17:35:43.428Z,65.03
2023-02-27T17:38:56.684Z,56.60
2023-02-27T17:42:09.318Z,58.63
2023-02-27T17:45:21.689Z,48.35
2023-02-27T17:48:35.552Z,37.47
2023-02-27T17:51:48.478Z,43.63
2023-02-27T17:55:01.114Z,40.58
2023-02-27T17:58:13.485Z,24.25
2023-02-27T18:01:26.538Z,22.37
2023-02-27T18:04:39.242Z,22.17
2023-02-27T18:07:52.018Z,18.05
2023-02-27T18:11:09.392Z,17.12
2023-02-27T18:14:21.750Z,14.05
2023-02-27T18:17:34.376Z,14.52
2023-02-27T18:20:46.768Z,14.45
2023-02-27T18:23:59.446Z,11.95
2023-02-27T18:27:12.035Z,15.48
2023-02-27T18:30:24.839Z,10.60
2023-02-27T18:33:37.151Z,11.20
2023-02-27T18:36:49.905Z,11.40
2023-02-27T18:40:02.279Z,15.07
2023-02-27T18:43:14.982Z,13.13
2023-02-27T18:46:28.296Z,22.98
2023-02-27T18:49:41.312Z,22.75
2023-02-27T18:52:56.150Z,19.77
2023-02-27T18:56:09.211Z,14.65
2023-02-27T18:59:21.503Z,13.43
2023-02-27T19:02:37.223Z,15.35
2023-02-27T19:05:49.684Z,12.20
2023-02-27T19:09:05.108Z,14.25
2023-02-27T19:12:17.469Z,14.18
2023-02-27T19:15:30.050Z,18.20
2023-02-27T19:18:42.389Z,12.88
2023-02-27T19:21:55.374Z,12.95
2023-02-27T19:25:08.019Z,12.43
2023-02-27T19:28:20.642Z,13.10
2023-02-27T19:31:33.169Z,16.90
2023-02-27T19:34:45.900Z,15.13
2023-02-27T19:37:59.178Z,11.65
2023-02-27T19:41:12.848Z,14.25
2023-02-27T19:44:26.634Z,13.95
2023-02-27T19:47:39.510Z,12.40
2023-02-27T19:50:51.861Z,14.07
2023-02-27T19:54:04.622Z,9.85
2023-02-27T19:57:18.287Z,10.68
2023-02-27T20:00:32.338Z,10.13
2023-02-27T20:03:45.004Z,11.68
2023-02-27T20:06:57.330Z,10.95
2023-02-27T20:10:10.983Z,12.00
2023-02-27T20:13:23.403Z,11.50
2023-02-27T20:16:36.934Z,9.13
2023-02-27T20:19:49.333Z,10.52
2023-02-27T20:23:02.139Z,7.22
2023-02-27T20:26:22.289Z,13.85
2023-02-27T20:29:35.105Z,15.27
2023-02-27T20:32:47.582Z,11.75
2023-02-27T20:36:03.654Z,11.82
2023-02-27T20:39:16.462Z,11.00
2023-02-27T20:42:29.092Z,16.55
2023-02-27T20:45:41.782Z,14.65
2023-02-27T20:49:01.551Z,16.50
2023-02-27T20:52:13.984Z,13.32
2023-02-27T20:55:26.605Z,12.55
2023-02-27T20:58:39.197Z,12.73
2023-02-27T21:01:52.245Z,15.65
2023-02-27T21:05:05.183Z,12.05
2023-02-27T21:08:18.199Z,11.57
2023-02-27T21:11:31.214Z,13.13
2023-02-27T21:14:44.596Z,12.50
2023-02-27T21:17:57.020Z,14.38
2023-02-27T21:21:15.057Z,10.90
2023-02-27T21:24:27.438Z,13.27
2023-02-27T21:27:40.080Z,14.48
2023-02-27T21:30:54.511Z,15.80
2023-02-27T21:34:08.880Z,17.10
2023-02-27T21:37:21.198Z,13.50
2023-02-27T21:40:33.950Z,15.55
2023-02-27T21:43:46.277Z,14.43
2023-02-27T21:46:59.095Z,13.02
2023-02-27T21:50:14.392Z,14.05
2023-02-27T21:53:27.476Z,13.75
2023-02-27T21:56:40.652Z,13.52
2023-02-27T21:59:53.286Z,15.15
2023-02-27T22:03:05.708Z,12.85
2023-02-27T22:06:18.940Z,15.30
2023-02-27T22:09:31.290Z,16.45
2023-02-27T22:12:43.968Z,15.23
2023-02-27T22:15:56.324Z,15.38
2023-02-27T22:19:11.269Z,13.50
2023-02-27T22:22:24.224Z,11.73
2023-02-27T22:25:36.827Z,14.15
2023-02-27T22:28:49.144Z,13.25
2023-02-27T22:32:01.931Z,16.30
2023-02-27T22:35:14.263Z,10.38
2023-02-27T22:38:26.929Z,13.40
2023-02-27T22:41:40.466Z,15.15
2023-02-27T22:44:53.065Z,14.80
2023-02-27T22:48:05.621Z,16.92
2023-02-27T22:51:18.248Z,17.60
2023-02-27T22:54:30.710Z,20.83
2023-02-27T22:57:43.351Z,21.83
2023-02-27T23:00:56.561Z,18.42
2023-02-27T23:04:11.377Z,17.17
2023-02-27T23:07:23.840Z,19.33
2023-02-27T23:10:36.537Z,17.17
2023-02-27T23:13:48.991Z,17.95
2023-02-27T23:17:01.685Z,20.65
2023-02-27T23:20:14.029Z,16.83
2023-02-27T23:23:28.267Z,14.95
2023-02-27T23:26:45.460Z,15.13
2023-02-27T23:29:58.066Z,15.43
2023-02-27T23:33:10.405Z,16.73
2023-02-27T23:36:23.172Z,17.20
2023-02-27T23:39:35.501Z,19.70
2023-02-27T23:43:06.695Z,19.40
2023-02-27T23:46:19.147Z,20.15
2023-02-27T23:49:31.773Z,18.27
2023-02-27T23:52:44.845Z,15.63
2023-02-27T23:55:57.477Z,19.25
2023-02-27T23:59:09.802Z,24.98
